KHND

Henderson Executive Airport

Airport
ICAO code
KHND
IATA Code
HSH
Summary
ICAO Region
NAM
ICAO Territory
Location

Henderson, Nevada

Serving
Las Vegas
Elevation
2492 ft
Coordinates
35° 58' 38" N , 115° 8' 24" W
KCC
Airport LOS
Parallel Runway Operation
Metar
KHND 211056Z AUTO 20006KT 10SM CLR 26/01 A2974 RMK AO2 SLP053 T02610011

Henderson Executive Airport is a public airport located 12 nm south of the central business district of Las Vegas, in Clark County, Nevada, USA.

Airport map

Aerial View

SKYbrary Partners:

Safety knowledge contributed by: